Time;durP1;ratioP1;P1;durP2;ratioP2;P2;SDS_P1;SDS_P2;PMS_P1;PMS_P2;Temp;Humidity;BMP_temperature;BMP_pressure;BME280_temperature;BME280_humidity;BME280_pressure;Samples;Min_cycle;Max_cycle;Signal;HPM_P1;HPM_P2
2023/05/21 00:02:16;;;;;;;5.20;1.52;;;9.80;99.90;;;;;;5052843;28;20033;-67
2023/05/21 00:04:44;;;;;;;3.70;1.92;;;9.70;99.90;;;;;;5047198;28;20133;-68
2023/05/21 00:07:11;;;;;;;4.68;1.88;;;9.70;99.90;;;;;;5037189;28;20036;-68
2023/05/21 00:09:37;;;;;;;4.70;1.80;;;9.70;99.90;;;;;;5050517;28;20064;-67
2023/05/21 00:12:07;;;;;;;6.93;1.95;;;9.70;99.90;;;;;;5044280;28;20154;-68
2023/05/21 00:14:33;;;;;;;7.43;1.73;;;9.70;99.90;;;;;;5047607;28;20769;-67
2023/05/21 00:16:59;;;;;;;5.40;1.92;;;9.70;99.90;;;;;;5044655;28;20329;-68
2023/05/21 00:19:25;;;;;;;4.88;1.95;;;9.70;99.90;;;;;;5052994;28;20060;-68
2023/05/21 00:21:51;;;;;;;4.63;1.55;;;9.70;99.90;;;;;;5044151;28;20384;-67
2023/05/21 00:24:17;;;;;;;3.13;1.75;;;9.70;99.90;;;;;;5046687;28;20082;-67
2023/05/21 00:26:43;;;;;;;4.53;1.88;;;9.70;99.90;;;;;;5046666;28;20064;-67
2023/05/21 00:29:09;;;;;;;7.75;2.13;;;9.70;99.90;;;;;;5044529;28;20219;-67
2023/05/21 00:31:34;;;;;;;2.60;1.63;;;9.70;99.90;;;;;;5048815;28;20038;-67
2023/05/21 00:34:00;;;;;;;8.82;1.77;;;9.70;99.90;;;;;;5032839;28;20044;-67
2023/05/21 00:36:26;;;;;;;4.15;1.80;;;9.70;99.90;;;;;;5046051;28;20174;-67
2023/05/21 00:38:51;;;;;;;8.10;2.45;;;9.70;99.90;;;;;;5048979;28;20036;-67
2023/05/21 00:41:17;;;;;;;5.43;1.90;;;9.60;99.90;;;;;;5052486;28;20040;-67
2023/05/21 00:43:43;;;;;;;6.80;1.95;;;9.60;99.90;;;;;;5045764;28;20117;-67
2023/05/21 00:46:17;;;;;;;6.70;2.05;;;9.60;99.90;;;;;;5048375;28;20029;-67
2023/05/21 00:48:46;;;;;;;6.22;2.28;;;9.60;99.90;;;;;;5046554;28;20036;-68
2023/05/21 00:51:17;;;;;;;2.38;2.10;;;9.60;99.90;;;;;;5050535;28;20566;-67
2023/05/21 00:53:43;;;;;;;4.45;2.05;;;9.60;99.90;;;;;;5048330;28;20105;-67
2023/05/21 00:56:09;;;;;;;7.95;2.10;;;9.60;99.90;;;;;;5050469;28;20084;-67
2023/05/21 00:58:35;;;;;;;6.07;1.88;;;9.50;99.90;;;;;;5045688;28;20500;-67
2023/05/21 01:01:02;;;;;;;6.25;2.15;;;9.50;99.90;;;;;;5034376;28;20683;-67
2023/05/21 01:03:37;;;;;;;8.07;2.50;;;9.50;99.90;;;;;;5050411;28;20139;-67
2023/05/21 01:06:04;;;;;;;7.07;2.30;;;9.50;99.90;;;;;;5045225;28;20016;-67
2023/05/21 01:08:31;;;;;;;7.28;2.58;;;9.50;99.90;;;;;;5057241;28;20455;-67
2023/05/21 01:10:57;;;;;;;5.70;2.63;;;9.50;99.90;;;;;;5055245;28;20020;-67
2023/05/21 01:13:25;;;;;;;8.35;2.47;;;9.50;99.90;;;;;;5053570;28;20051;-68
2023/05/21 01:15:52;;;;;;;7.43;2.60;;;9.60;99.90;;;;;;5054258;28;20028;-67
2023/05/21 01:18:18;;;;;;;4.95;2.67;;;9.60;99.90;;;;;;5048834;28;20025;-68
2023/05/21 01:20:46;;;;;;;5.57;2.28;;;9.60;99.90;;;;;;5066524;28;20020;-68
2023/05/21 01:23:16;;;;;;;8.80;2.20;;;9.60;99.90;;;;;;5049003;28;20499;-67
2023/05/21 01:25:42;;;;;;;5.57;2.50;;;9.60;99.90;;;;;;5034301;28;20024;-67
2023/05/21 01:28:08;;;;;;;8.68;2.25;;;9.60;99.90;;;;;;5052651;28;20051;-67
2023/05/21 01:30:35;;;;;;;7.18;2.42;;;9.50;99.90;;;;;;5048847;28;20527;-67
2023/05/21 01:33:24;;;;;;;4.68;1.95;;;9.50;99.90;;;;;;5030739;28;20048;-67
2023/05/21 01:35:59;;;;;;;7.38;2.10;;;9.50;99.90;;;;;;5048768;28;20048;-67
2023/05/21 01:38:54;;;;;;;10.40;2.90;;;9.40;99.90;;;;;;5052544;28;20036;-67
2023/05/21 01:41:21;;;;;;;5.00;2.25;;;9.40;99.90;;;;;;5045892;28;20164;-67
2023/05/21 01:43:47;;;;;;;5.88;2.70;;;9.40;99.90;;;;;;5051593;28;20060;-67
2023/05/21 01:46:16;;;;;;;8.15;2.50;;;9.30;99.90;;;;;;5047798;28;20054;-67
2023/05/21 01:48:43;;;;;;;8.77;2.30;;;9.30;99.90;;;;;;5047690;28;20036;-67
2023/05/21 01:51:09;;;;;;;9.35;2.63;;;9.20;99.90;;;;;;5047283;28;20017;-67
2023/05/21 01:53:37;;;;;;;6.25;2.78;;;9.10;99.90;;;;;;5046521;28;20127;-67
2023/05/21 01:56:03;;;;;;;7.53;2.33;;;9.10;99.90;;;;;;5053155;28;20583;-67
2023/05/21 01:58:29;;;;;;;5.68;2.13;;;9.00;99.90;;;;;;5050900;28;20114;-67
2023/05/21 02:00:55;;;;;;;5.03;2.25;;;9.00;99.90;;;;;;5044521;28;20470;-67
2023/05/21 02:03:24;;;;;;;5.47;2.10;;;9.00;99.90;;;;;;5066476;28;20242;-67
2023/05/21 02:05:50;;;;;;;10.50;3.17;;;8.90;99.90;;;;;;5051677;28;20028;-67
2023/05/21 02:08:18;;;;;;;5.43;2.47;;;9.00;99.90;;;;;;5050441;28;20159;-68
2023/05/21 02:10:44;;;;;;;6.63;2.83;;;8.90;99.90;;;;;;5053554;28;20060;-67
2023/05/21 02:13:10;;;;;;;8.65;2.75;;;8.90;99.90;;;;;;5046597;28;20408;-67
2023/05/21 02:15:36;;;;;;;8.07;2.13;;;8.80;99.90;;;;;;5044289;28;20078;-68
2023/05/21 02:18:02;;;;;;;5.20;2.50;;;8.80;99.90;;;;;;5032944;28;20041;-67
2023/05/21 02:20:29;;;;;;;7.78;2.70;;;8.80;99.90;;;;;;5030468;28;20231;-67
2023/05/21 02:22:55;;;;;;;5.32;2.33;;;8.70;99.90;;;;;;5045931;28;20067;-67
2023/05/21 02:25:21;;;;;;;6.20;2.60;;;8.70;99.90;;;;;;5022414;28;20123;-68
2023/05/21 02:27:51;;;;;;;7.55;2.97;;;8.70;99.90;;;;;;5046519;28;20036;-67
2023/05/21 02:30:17;;;;;;;5.50;2.70;;;8.70;99.90;;;;;;5045692;28;20024;-67
2023/05/21 02:32:43;;;;;;;2.95;2.30;;;8.60;99.90;;;;;;5047689;28;20090;-67
2023/05/21 02:35:11;;;;;;;7.50;2.75;;;8.60;99.90;;;;;;5048565;28;20024;-67
2023/05/21 02:37:39;;;;;;;8.05;2.70;;;8.50;99.90;;;;;;5047307;28;20037;-67
2023/05/21 02:40:06;;;;;;;6.97;2.60;;;8.50;99.90;;;;;;5048749;28;20040;-67
2023/05/21 02:42:32;;;;;;;9.93;2.90;;;8.50;99.90;;;;;;5050892;28;20322;-67
2023/05/21 02:44:57;;;;;;;7.13;2.90;;;8.50;99.90;;;;;;5047397;28;20513;-67
2023/05/21 02:47:24;;;;;;;7.68;3.08;;;8.50;99.90;;;;;;5051666;28;20036;-67
2023/05/21 02:49:51;;;;;;;8.38;2.78;;;8.50;99.90;;;;;;5056555;28;20024;-67
2023/05/21 02:52:18;;;;;;;9.77;3.90;;;8.50;99.90;;;;;;5050395;28;20033;-67
2023/05/21 02:54:44;;;;;;;6.72;3.00;;;8.50;99.90;;;;;;5028015;28;20367;-68
2023/05/21 02:57:10;;;;;;;8.40;3.10;;;8.50;99.90;;;;;;5034023;28;20037;-68
2023/05/21 02:59:36;;;;;;;8.73;2.60;;;8.50;99.90;;;;;;5050312;28;20032;-67
2023/05/21 03:02:01;;;;;;;8.38;3.25;;;8.50;99.90;;;;;;5048226;28;20134;-67
2023/05/21 03:04:27;;;;;;;9.73;3.33;;;8.50;99.90;;;;;;5047589;28;20045;-67
2023/05/21 03:06:54;;;;;;;6.88;3.00;;;8.40;99.90;;;;;;5049473;28;20036;-67
2023/05/21 03:09:20;;;;;;;7.13;2.72;;;8.50;99.90;;;;;;5045873;28;20031;-67
2023/05/21 03:11:46;;;;;;;6.18;3.22;;;8.40;99.90;;;;;;5052480;28;20380;-67
2023/05/21 03:14:12;;;;;;;6.57;3.28;;;8.40;99.90;;;;;;5050504;28;20029;-67
2023/05/21 03:16:40;;;;;;;9.60;4.15;;;8.40;99.90;;;;;;5053033;28;20444;-67
2023/05/21 03:19:06;;;;;;;7.47;3.50;;;8.40;99.90;;;;;;5047209;28;20037;-67
2023/05/21 03:21:32;;;;;;;9.07;3.30;;;8.30;99.90;;;;;;5046310;28;20107;-67
2023/05/21 03:23:59;;;;;;;9.45;2.78;;;8.40;99.90;;;;;;5050736;28;20038;-67
2023/05/21 03:26:28;;;;;;;7.13;3.05;;;8.30;99.90;;;;;;5050349;28;20364;-67
2023/05/21 03:28:56;;;;;;;9.13;3.35;;;8.30;99.90;;;;;;5051911;28;20135;-67
2023/05/21 03:31:24;;;;;;;6.53;3.08;;;8.30;99.90;;;;;;5049272;28;20782;-67
2023/05/21 03:33:50;;;;;;;8.07;2.85;;;8.20;99.90;;;;;;5054546;28;20167;-68
2023/05/21 03:36:16;;;;;;;7.60;3.47;;;8.20;99.90;;;;;;5054381;28;20029;-68
2023/05/21 03:38:41;;;;;;;12.07;3.25;;;8.20;99.90;;;;;;5035862;28;20039;-67
2023/05/21 03:41:07;;;;;;;6.05;2.70;;;8.20;99.90;;;;;;5051234;28;20488;-67
2023/05/21 03:43:33;;;;;;;7.75;3.50;;;8.10;99.90;;;;;;5048209;28;20033;-67
2023/05/21 03:45:59;;;;;;;7.28;3.17;;;8.20;99.90;;;;;;5046822;28;20028;-68
2023/05/21 03:48:25;;;;;;;5.93;3.10;;;8.20;99.90;;;;;;5060948;28;20039;-67
2023/05/21 03:50:50;;;;;;;12.30;3.42;;;8.10;99.90;;;;;;5056071;28;20036;-67
2023/05/21 03:53:17;;;;;;;9.00;3.95;;;8.20;99.90;;;;;;5057739;28;20033;-67
2023/05/21 03:55:43;;;;;;;8.73;3.58;;;8.20;99.90;;;;;;5057264;28;20052;-67
2023/05/21 03:58:09;;;;;;;10.75;3.42;;;8.20;99.90;;;;;;5055654;28;20498;-67
2023/05/21 04:00:39;;;;;;;11.05;4.00;;;8.20;99.90;;;;;;5058904;28;20277;-67
2023/05/21 04:03:05;;;;;;;8.80;3.90;;;8.10;99.90;;;;;;5056530;28;20052;-67
2023/05/21 04:05:31;;;;;;;8.80;3.63;;;8.10;99.90;;;;;;5054015;28;20024;-67
2023/05/21 04:07:58;;;;;;;9.75;3.72;;;8.00;99.90;;;;;;5057456;28;20115;-67
2023/05/21 04:10:25;;;;;;;11.27;4.22;;;8.10;99.90;;;;;;5046228;28;20037;-67
2023/05/21 04:12:51;;;;;;;15.57;3.88;;;8.00;99.90;;;;;;5025956;28;20361;-67
2023/05/21 04:15:18;;;;;;;13.30;5.05;;;8.00;99.90;;;;;;5030952;28;20073;-68
2023/05/21 04:17:44;;;;;;;10.25;3.88;;;8.10;99.90;;;;;;5049670;28;20432;-68
2023/05/21 04:20:15;;;;;;;7.43;3.40;;;8.10;99.90;;;;;;5046470;28;20081;-67
2023/05/21 04:22:41;;;;;;;9.68;3.75;;;8.10;99.90;;;;;;5055583;28;20135;-67
2023/05/21 04:25:07;;;;;;;7.43;3.88;;;8.10;99.90;;;;;;5052751;28;20032;-67
2023/05/21 04:27:34;;;;;;;9.57;3.83;;;8.00;99.90;;;;;;5059202;28;20764;-67
2023/05/21 04:29:59;;;;;;;10.38;4.85;;;8.00;99.90;;;;;;5059027;28;20594;-67
2023/05/21 04:32:27;;;;;;;12.52;4.03;;;8.00;99.90;;;;;;5055571;28;20037;-67
2023/05/21 04:34:53;;;;;;;7.18;3.55;;;8.10;99.90;;;;;;5031046;28;20062;-67
2023/05/21 04:37:18;;;;;;;9.48;3.78;;;8.10;99.90;;;;;;5053862;28;20442;-67
2023/05/21 04:39:45;;;;;;;8.40;3.67;;;8.10;99.90;;;;;;5071767;28;20029;-67
2023/05/21 04:42:11;;;;;;;12.95;3.63;;;8.10;99.90;;;;;;5048841;28;20021;-68
2023/05/21 04:44:39;;;;;;;9.68;4.13;;;8.10;99.90;;;;;;5054665;28;20487;-67
2023/05/21 04:47:05;;;;;;;7.75;3.85;;;8.10;99.90;;;;;;5055820;28;20467;-67
2023/05/21 04:49:33;;;;;;;14.23;3.55;;;8.10;99.90;;;;;;5057519;28;20036;-67
2023/05/21 04:52:00;;;;;;;6.57;3.28;;;8.20;99.90;;;;;;5051937;28;20181;-67
2023/05/21 04:54:26;;;;;;;7.55;4.10;;;8.20;99.90;;;;;;5035205;28;20102;-67
2023/05/21 04:56:52;;;;;;;11.75;3.78;;;8.20;99.90;;;;;;5060088;28;20462;-67
2023/05/21 04:59:17;;;;;;;6.90;3.80;;;8.30;99.90;;;;;;5069266;28;20028;-67
2023/05/21 05:01:43;;;;;;;12.63;3.97;;;8.40;99.90;;;;;;5052311;28;20559;-67
2023/05/21 05:04:08;;;;;;;9.55;4.55;;;8.50;99.90;;;;;;5038303;28;20068;-67
2023/05/21 05:06:34;;;;;;;10.45;4.57;;;8.50;99.90;;;;;;5021368;28;20453;-68
2023/05/21 05:09:00;;;;;;;9.50;4.85;;;8.60;99.90;;;;;;5054611;28;20074;-67
2023/05/21 05:11:26;;;;;;;12.77;5.30;;;8.70;99.90;;;;;;5050514;28;20672;-68
2023/05/21 05:13:51;;;;;;;8.95;4.45;;;8.80;99.90;;;;;;5042539;28;20106;-67
2023/05/21 05:16:23;;;;;;;11.60;4.70;;;8.90;99.90;;;;;;5044305;28;20048;-67
2023/05/21 05:18:52;;;;;;;11.40;5.30;;;9.00;99.90;;;;;;5050965;28;20599;-68
2023/05/21 05:21:18;;;;;;;14.68;5.07;;;9.10;99.90;;;;;;5042997;28;20031;-67
2023/05/21 05:23:43;;;;;;;9.55;4.72;;;9.30;99.90;;;;;;5023517;28;20390;-67
2023/05/21 05:26:12;;;;;;;12.23;4.82;;;9.30;99.90;;;;;;5046737;28;20032;-67
2023/05/21 05:28:38;;;;;;;15.70;4.90;;;9.50;99.90;;;;;;5052791;28;20024;-67
2023/05/21 05:31:04;;;;;;;16.13;5.25;;;9.50;99.90;;;;;;5049986;28;20474;-67
2023/05/21 05:33:30;;;;;;;10.13;4.60;;;9.60;99.90;;;;;;5052787;28;20376;-66
2023/05/21 05:35:55;;;;;;;13.90;4.57;;;9.70;99.90;;;;;;5047279;28;20025;-67
2023/05/21 05:38:21;;;;;;;10.90;4.78;;;9.80;99.90;;;;;;5044408;28;20025;-66
2023/05/21 05:40:46;;;;;;;10.45;5.13;;;9.90;99.90;;;;;;5051470;28;20016;-67
2023/05/21 05:43:12;;;;;;;14.10;5.15;;;9.90;99.90;;;;;;5046409;28;20336;-67
2023/05/21 05:45:38;;;;;;;11.77;5.07;;;10.00;99.90;;;;;;5044541;28;20036;-69
2023/05/21 05:48:04;;;;;;;13.70;4.90;;;10.10;99.90;;;;;;5053333;28;20086;-68
2023/05/21 05:50:29;;;;;;;9.15;4.88;;;10.20;99.90;;;;;;5050327;28;21452;-67
2023/05/21 05:52:55;;;;;;;11.68;4.43;;;10.30;99.90;;;;;;5051573;28;20541;-67
2023/05/21 05:55:20;;;;;;;10.32;4.38;;;10.30;99.90;;;;;;5027202;28;20029;-67
2023/05/21 05:57:46;;;;;;;10.18;4.47;;;10.40;99.90;;;;;;5053211;28;20028;-67
2023/05/21 06:00:13;;;;;;;10.20;4.55;;;10.50;99.90;;;;;;5053407;28;20360;-67
2023/05/21 06:02:39;;;;;;;9.65;4.47;;;10.60;99.90;;;;;;5052162;28;20036;-67
2023/05/21 06:05:05;;;;;;;12.55;4.72;;;10.70;99.90;;;;;;5067768;28;20572;-67
2023/05/21 06:07:31;;;;;;;8.65;4.18;;;10.70;99.90;;;;;;5057880;28;20291;-67
2023/05/21 06:09:57;;;;;;;10.45;4.10;;;10.80;99.90;;;;;;5055995;28;20476;-67
2023/05/21 06:12:23;;;;;;;10.20;4.18;;;10.80;99.90;;;;;;5051669;28;20036;-67
2023/05/21 06:14:49;;;;;;;9.02;4.03;;;10.90;99.90;;;;;;5053658;28;20032;-67
2023/05/21 06:17:15;;;;;;;10.95;4.20;;;11.00;99.90;;;;;;5051816;28;20075;-67
2023/05/21 06:19:41;;;;;;;7.20;3.95;;;11.10;99.90;;;;;;5053817;28;20120;-67
2023/05/21 06:22:07;;;;;;;9.57;3.83;;;11.20;99.90;;;;;;5051674;28;20028;-67
2023/05/21 06:24:32;;;;;;;9.80;3.97;;;11.30;99.90;;;;;;5050058;28;20395;-67
2023/05/21 06:26:58;;;;;;;13.65;4.97;;;11.30;99.90;;;;;;5045429;28;20044;-67
2023/05/21 06:29:23;;;;;;;14.30;4.80;;;11.40;99.90;;;;;;5047891;28;20177;-67
2023/05/21 06:31:49;;;;;;;13.07;4.72;;;11.50;99.90;;;;;;5026755;28;20070;-67
2023/05/21 06:34:15;;;;;;;11.68;4.68;;;11.50;99.90;;;;;;5030433;28;20036;-68
2023/05/21 06:36:40;;;;;;;11.90;6.00;;;11.60;99.90;;;;;;5031431;28;20032;-67
2023/05/21 06:39:06;;;;;;;24.52;11.55;;;11.70;99.90;;;;;;5056296;28;20039;-67
2023/05/21 06:41:32;;;;;;;13.10;5.90;;;11.90;99.90;;;;;;5051740;28;20043;-67
2023/05/21 06:43:58;;;;;;;7.70;3.65;;;12.10;99.90;;;;;;5053279;28;20048;-67
2023/05/21 06:46:23;;;;;;;8.35;3.63;;;12.20;99.90;;;;;;5032035;28;20369;-67
2023/05/21 06:48:49;;;;;;;9.15;3.60;;;12.30;99.90;;;;;;5047981;28;20017;-67
2023/05/21 06:51:15;;;;;;;10.20;3.53;;;12.40;99.90;;;;;;5029276;28;20144;-67
2023/05/21 06:53:40;;;;;;;9.35;3.03;;;12.50;99.90;;;;;;5036636;28;20040;-67
2023/05/21 06:56:06;;;;;;;46.78;22.52;;;12.50;99.90;;;;;;5039659;28;20024;-68
2023/05/21 06:58:32;;;;;;;9.57;4.05;;;12.60;99.90;;;;;;5043093;28;20043;-69
2023/05/21 07:00:58;;;;;;;6.45;2.92;;;12.70;99.90;;;;;;5044713;28;20043;-68
2023/05/21 07:03:24;;;;;;;6.60;3.25;;;12.70;99.90;;;;;;5048793;28;20095;-68
2023/05/21 07:05:49;;;;;;;9.48;3.33;;;12.90;99.90;;;;;;5031838;28;20036;-68
2023/05/21 07:08:15;;;;;;;12.02;2.95;;;13.10;99.90;;;;;;5050413;28;20048;-68
2023/05/21 07:10:41;;;;;;;52.22;26.80;;;13.10;99.90;;;;;;5048505;28;20368;-68
2023/05/21 07:13:07;;;;;;;18.20;7.43;;;13.20;99.90;;;;;;5045438;28;20064;-68
2023/05/21 07:15:32;;;;;;;9.43;3.10;;;13.30;99.90;;;;;;5045301;28;20522;-68
2023/05/21 07:17:58;;;;;;;9.00;2.60;;;13.30;99.90;;;;;;5039805;28;20035;-68
2023/05/21 07:20:24;;;;;;;8.70;3.10;;;13.40;99.90;;;;;;5043604;28;20036;-68
2023/05/21 07:22:50;;;;;;;4.57;2.15;;;13.50;99.90;;;;;;5058885;28;20476;-68
2023/05/21 07:25:15;;;;;;;7.45;2.45;;;13.70;99.90;;;;;;5054963;28;20356;-68
2023/05/21 07:27:41;;;;;;;8.50;3.78;;;13.70;99.90;;;;;;5052960;28;20056;-68
2023/05/21 07:30:08;;;;;;;5.18;2.85;;;13.90;99.90;;;;;;5037428;28;20035;-68
2023/05/21 07:32:34;;;;;;;7.45;2.85;;;14.60;99.90;;;;;;5051200;28;20385;-68
2023/05/21 07:35:02;;;;;;;7.93;2.72;;;14.80;99.90;;;;;;5054027;28;20452;-68
2023/05/21 07:37:28;;;;;;;8.38;2.10;;;15.00;99.90;;;;;;5047909;28;20037;-68
2023/05/21 07:39:57;;;;;;;3.60;2.00;;;15.20;99.40;;;;;;5044994;28;20504;-68
2023/05/21 07:42:23;;;;;;;8.15;2.22;;;15.50;97.40;;;;;;5050182;28;20594;-69
2023/05/21 07:44:49;;;;;;;5.15;1.77;;;16.00;96.70;;;;;;5051233;28;20094;-68
2023/05/21 07:47:14;;;;;;;44.70;22.05;;;16.90;96.50;;;;;;5051604;28;20054;-69
2023/05/21 07:49:40;;;;;;;4.30;1.75;;;19.30;82.80;;;;;;5053548;28;20387;-67
2023/05/21 07:52:06;;;;;;;4.32;1.30;;;21.60;55.60;;;;;;5036553;28;20040;-70
2023/05/21 07:54:31;;;;;;;4.40;1.40;;;23.90;50.60;;;;;;5056269;28;20028;-68
2023/05/21 07:56:57;;;;;;;4.97;1.58;;;26.00;43.20;;;;;;5051978;28;20032;-68
2023/05/21 07:59:24;;;;;;;3.55;1.30;;;27.00;40.50;;;;;;5056155;28;20055;-66
2023/05/21 08:01:49;;;;;;;12.32;5.45;;;27.40;36.30;;;;;;5030451;28;20056;-69
2023/05/21 08:04:15;;;;;;;5.25;1.38;;;28.40;36.50;;;;;;5050514;28;20068;-68
2023/05/21 08:06:40;;;;;;;2.42;1.25;;;28.10;33.80;;;;;;5040139;28;20076;-69
2023/05/21 08:09:07;;;;;;;3.47;1.20;;;28.70;35.60;;;;;;5039353;28;20413;-70
2023/05/21 08:11:33;;;;;;;4.78;1.50;;;29.60;35.10;;;;;;5057804;28;20086;-73
2023/05/21 08:13:58;;;;;;;4.13;1.20;;;30.90;32.00;;;;;;5053328;28;20438;-75
2023/05/21 08:16:24;;;;;;;4.50;1.48;;;30.80;31.90;;;;;;5041088;28;20036;-69
2023/05/21 08:18:50;;;;;;;11.05;5.63;;;31.80;30.40;;;;;;5061552;28;20347;-74
2023/05/21 08:21:16;;;;;;;4.18;1.40;;;31.50;31.80;;;;;;5051961;28;20048;-74
2023/05/21 08:23:42;;;;;;;6.50;1.30;;;30.20;29.40;;;;;;5047219;28;20397;-72
2023/05/21 08:26:08;;;;;;;3.30;1.42;;;30.50;31.00;;;;;;5064049;28;20110;-71
2023/05/21 08:28:37;;;;;;;3.25;1.33;;;30.70;29.90;;;;;;5065945;28;20371;-69
2023/05/21 08:31:02;;;;;;;3.20;1.40;;;31.50;30.90;;;;;;5059686;28;20111;-70
2023/05/21 08:33:28;;;;;;;48.63;37.65;;;32.70;28.90;;;;;;5036750;28;20471;-73
2023/05/21 08:35:54;;;;;;;5.95;2.55;;;32.80;28.80;;;;;;5040710;28;20118;-67
2023/05/21 08:38:19;;;;;;;5.65;1.63;;;32.10;28.10;;;;;;5037127;28;20057;-73
2023/05/21 08:40:46;;;;;;;2.42;1.10;;;31.90;28.20;;;;;;5033539;28;20035;-72
2023/05/21 08:43:15;;;;;;;4.82;1.27;;;32.20;28.40;;;;;;5058209;28;20096;-72
2023/05/21 08:45:43;;;;;;;4.45;1.33;;;31.40;31.50;;;;;;5055014;28;20476;-70
2023/05/21 08:48:11;;;;;;;2.65;1.27;;;33.20;29.10;;;;;;5055124;28;20029;-69
2023/05/21 08:50:36;;;;;;;3.33;1.10;;;34.10;27.00;;;;;;5053104;28;20044;-70
2023/05/21 08:53:02;;;;;;;7.40;1.48;;;33.80;27.80;;;;;;5058319;28;20046;-67
2023/05/21 08:55:29;;;;;;;3.03;1.20;;;32.80;27.30;;;;;;5057323;28;20047;-67
2023/05/21 08:57:55;;;;;;;2.75;1.10;;;33.60;27.60;;;;;;5053808;28;21008;-69
2023/05/21 09:00:21;;;;;;;4.72;1.10;;;35.20;27.00;;;;;;5049966;28;20107;-69
2023/05/21 09:02:47;;;;;;;3.15;1.20;;;34.40;26.20;;;;;;5050092;28;20404;-68
2023/05/21 09:05:15;;;;;;;2.60;1.42;;;34.50;26.90;;;;;;5043631;28;20037;-67
2023/05/21 09:08:03;;;;;;;5.82;1.60;;;33.30;25.60;;;;;;5064957;28;20426;-70
2023/05/21 09:10:35;;;;;;;6.40;1.33;;;33.60;27.70;;;;;;5044989;28;20028;-69
2023/05/21 09:13:02;;;;;;;4.78;1.45;;;34.30;27.60;;;;;;5048909;28;20685;-68
2023/05/21 09:15:28;;;;;;;3.17;1.23;;;33.50;26.90;;;;;;5047287;28;20088;-68
2023/05/21 09:17:54;;;;;;;3.30;1.15;;;33.90;28.60;;;;;;5026374;28;20344;-67
2023/05/21 09:20:24;;;;;;;3.58;1.27;;;34.70;26.00;;;;;;5046083;28;20122;-68
2023/05/21 09:22:50;;;;;;;3.47;1.10;;;34.90;25.20;;;;;;5047282;28;20027;-69
2023/05/21 09:25:23;;;;;;;2.80;1.40;;;35.20;27.30;;;;;;5033642;28;20033;-70
2023/05/21 09:27:49;;;;;;;3.05;1.33;;;34.00;27.30;;;;;;5029572;28;20067;-70
2023/05/21 09:30:16;;;;;;;3.10;1.10;;;33.60;26.60;;;;;;5043313;28;20430;-71
2023/05/21 09:32:43;;;;;;;3.15;1.30;;;33.40;27.40;;;;;;5028980;28;20044;-70
2023/05/21 09:35:13;;;;;;;3.72;1.50;;;31.70;27.40;;;;;;5040846;28;21090;-70
2023/05/21 09:37:42;;;;;;;5.55;1.58;;;30.40;29.10;;;;;;5027091;28;20043;-70
2023/05/21 09:40:15;;;;;;;3.42;1.27;;;29.60;29.50;;;;;;5052651;28;20417;-70
2023/05/21 09:42:46;;;;;;;4.40;1.50;;;27.30;31.80;;;;;;5046672;28;20343;-69
2023/05/21 09:45:16;;;;;;;2.92;1.10;;;27.40;33.00;;;;;;5030291;28;20108;-70
2023/05/21 09:47:42;;;;;;;3.07;1.20;;;28.90;34.00;;;;;;5050819;28;20091;-70
2023/05/21 09:50:12;;;;;;;3.38;1.70;;;31.00;31.90;;;;;;5054072;28;20281;-70
2023/05/21 09:52:38;;;;;;;5.13;1.70;;;32.40;28.00;;;;;;5055184;28;20653;-70
2023/05/21 09:55:05;;;;;;;4.22;1.85;;;31.90;28.90;;;;;;5050973;28;20514;-70
2023/05/21 09:57:31;;;;;;;2.17;1.05;;;31.80;30.00;;;;;;5051866;28;20194;-69
2023/05/21 09:59:57;;;;;;;3.72;1.80;;;30.30;31.70;;;;;;5045164;28;20123;-70
2023/05/21 10:02:25;;;;;;;3.45;1.75;;;27.60;32.80;;;;;;5046423;28;20586;-71
2023/05/21 10:04:53;;;;;;;3.47;1.60;;;25.40;37.40;;;;;;5052233;28;20733;-71
2023/05/21 10:07:25;;;;;;;3.28;1.58;;;24.50;38.30;;;;;;5051793;28;20024;-71
2023/05/21 10:09:57;;;;;;;3.22;1.55;;;24.50;40.10;;;;;;5046992;28;20024;-71
2023/05/21 10:12:24;;;;;;;3.40;1.60;;;24.50;44.50;;;;;;4692339;28;10000418;-72
2023/05/21 10:14:59;;;;;;;5.75;1.70;;;25.10;43.90;;;;;;5046466;28;20521;-71
2023/05/21 10:17:25;;;;;;;2.67;1.10;;;24.90;38.10;;;;;;5054140;28;20499;-71
2023/05/21 10:19:53;;;;;;;2.70;1.58;;;25.40;42.10;;;;;;5052947;28;20119;-71
2023/05/21 10:22:19;;;;;;;4.70;1.30;;;25.60;39.20;;;;;;5051669;28;20081;-71
2023/05/21 10:24:45;;;;;;;2.05;1.30;;;25.40;36.60;;;;;;5023319;28;20021;-71
2023/05/21 10:27:12;;;;;;;4.10;1.40;;;25.70;38.20;;;;;;5048923;28;20020;-72
2023/05/21 10:29:40;;;;;;;2.90;1.27;;;26.30;39.60;;;;;;5049342;28;20515;-72
2023/05/21 10:32:06;;;;;;;3.83;1.50;;;25.60;38.10;;;;;;5048621;28;20023;-71
2023/05/21 10:34:33;;;;;;;2.45;1.48;;;24.20;40.30;;;;;;5057786;28;20044;-71
2023/05/21 10:37:02;;;;;;;3.75;1.60;;;25.50;39.50;;;;;;5056463;28;20112;-71
2023/05/21 10:39:29;;;;;;;4.03;1.67;;;25.20;40.90;;;;;;5050656;28;20056;-71
2023/05/21 10:42:07;;;;;;;3.00;1.55;;;25.20;38.90;;;;;;5058782;28;20025;-71
2023/05/21 10:45:14;;;;;;;5.70;1.65;;;24.80;42.20;;;;;;5051473;28;20033;-71
2023/05/21 10:47:46;;;;;;;3.15;1.73;;;27.50;37.60;;;;;;5030654;28;20156;-69
2023/05/21 10:50:11;;;;;;;2.47;1.50;;;28.50;34.00;;;;;;5036300;28;20062;-70
2023/05/21 10:52:59;;;;;;;6.13;1.60;;;28.90;34.30;;;;;;5064383;28;20036;-70
2023/05/21 10:55:37;;;;;;;4.03;1.50;;;29.40;32.60;;;;;;5041160;28;20841;-70
2023/05/21 10:58:08;;;;;;;2.22;1.25;;;29.90;34.30;;;;;;5058464;28;20040;-70
2023/05/21 11:00:34;;;;;;;4.35;1.55;;;30.50;31.50;;;;;;5036212;28;20949;-71
2023/05/21 11:03:02;;;;;;;2.10;1.23;;;31.20;29.60;;;;;;5052642;28;20055;-70
2023/05/21 11:05:49;;;;;;;3.50;1.38;;;33.00;28.70;;;;;;5058810;28;20032;-70
2023/05/21 11:08:21;;;;;;;3.85;1.30;;;33.40;29.30;;;;;;5067656;28;20028;-71
2023/05/21 11:10:57;;;;;;;4.38;1.67;;;32.90;29.30;;;;;;5056927;28;20033;-70
2023/05/21 11:13:24;;;;;;;3.65;1.40;;;31.00;29.10;;;;;;5047153;28;20056;-70
2023/05/21 11:16:04;;;;;;;3.40;1.70;;;31.00;31.40;;;;;;5056638;28;20024;-70
2023/05/21 11:18:36;;;;;;;3.17;1.20;;;28.40;31.20;;;;;;5060512;28;20040;-70
2023/05/21 11:21:16;;;;;;;4.28;1.55;;;27.80;34.40;;;;;;5044208;28;20726;-70
2023/05/21 11:23:55;;;;;;;3.00;1.52;;;27.80;36.20;;;;;;5065038;28;20033;-70
2023/05/21 11:26:44;;;;;;;4.32;1.75;;;27.80;33.90;;;;;;5051972;28;20091;-70
2023/05/21 11:29:10;;;;;;;4.13;1.55;;;26.30;37.00;;;;;;5034990;28;20039;-70
2023/05/21 11:31:39;;;;;;;3.40;1.50;;;24.80;40.40;;;;;;5055204;28;20028;-70
2023/05/21 11:34:07;;;;;;;4.95;1.60;;;23.70;40.20;;;;;;5023800;28;20036;-70
2023/05/21 11:36:36;;;;;;;6.25;1.98;;;22.80;48.80;;;;;;5050337;28;20442;-70
2023/05/21 11:39:11;;;;;;;6.22;1.58;;;22.20;46.40;;;;;;5059869;28;20748;-71
2023/05/21 11:41:59;;;;;;;5.53;1.80;;;22.60;45.40;;;;;;5058076;28;20484;-71
2023/05/21 11:44:45;;;;;;;6.03;1.77;;;22.60;46.60;;;;;;5052119;28;20116;-71
2023/05/21 11:47:13;;;;;;;4.65;1.70;;;22.30;47.40;;;;;;5048591;28;20028;-70
2023/05/21 11:49:39;;;;;;;3.90;1.75;;;21.40;49.80;;;;;;5071680;28;20116;-71
2023/05/21 11:52:06;;;;;;;5.43;1.95;;;21.40;52.10;;;;;;5060444;28;20119;-71
2023/05/21 11:54:37;;;;;;;5.95;1.90;;;21.60;62.90;;;;;;5050250;28;20047;-70
2023/05/21 11:57:06;;;;;;;4.15;1.80;;;21.50;50.50;;;;;;5066921;28;20025;-71
2023/05/21 11:59:33;;;;;;;5.65;1.67;;;21.50;48.60;;;;;;5056843;28;20032;-71
2023/05/21 12:01:59;;;;;;;3.08;1.75;;;21.30;49.90;;;;;;5041600;28;20028;-71
2023/05/21 12:04:38;;;;;;;4.20;1.75;;;21.40;61.30;;;;;;5032547;28;20412;-70
2023/05/21 12:07:06;;;;;;;3.13;1.50;;;21.90;53.20;;;;;;5026643;28;20044;-71
2023/05/21 12:09:39;;;;;;;4.43;1.90;;;22.40;50.00;;;;;;5031206;28;20453;-70
2023/05/21 12:12:06;;;;;;;4.72;1.80;;;22.50;47.00;;;;;;5037917;28;20033;-71
2023/05/21 12:14:32;;;;;;;4.47;1.63;;;22.70;46.30;;;;;;4682630;28;10000772;-71
2023/05/21 12:16:58;;;;;;;4.88;1.77;;;22.70;52.50;;;;;;5027673;28;20228;-71
2023/05/21 12:19:23;;;;;;;4.38;1.50;;;22.50;47.40;;;;;;5033649;28;20060;-71
2023/05/21 12:21:49;;;;;;;3.22;1.77;;;22.30;53.20;;;;;;5032978;28;20086;-71
2023/05/21 12:24:15;;;;;;;2.67;1.70;;;21.90;50.60;;;;;;5032161;28;20030;-71
2023/05/21 12:26:43;;;;;;;4.28;1.73;;;21.40;56.80;;;;;;5041355;28;20516;-71
2023/05/21 12:29:09;;;;;;;4.10;1.80;;;21.30;54.50;;;;;;5042141;28;20054;-71
2023/05/21 12:31:47;;;;;;;7.50;2.20;;;21.10;57.80;;;;;;5036384;28;20032;-71
2023/05/21 12:34:14;;;;;;;2.70;1.77;;;20.90;57.00;;;;;;5025202;28;20102;-70
2023/05/21 12:36:45;;;;;;;3.78;1.85;;;21.10;60.50;;;;;;5027837;28;20384;-71
2023/05/21 12:39:11;;;;;;;4.10;1.80;;;21.40;53.60;;;;;;5024064;28;20498;-71
2023/05/21 12:41:36;;;;;;;5.72;1.77;;;21.80;51.80;;;;;;5027520;28;20033;-71
2023/05/21 12:44:04;;;;;;;3.90;1.80;;;22.30;55.40;;;;;;5024397;28;20668;-71
2023/05/21 12:46:30;;;;;;;4.85;1.77;;;22.10;54.00;;;;;;5022283;28;20028;-71
2023/05/21 12:48:56;;;;;;;5.78;1.85;;;21.60;48.00;;;;;;5017805;28;20033;-71
2023/05/21 12:51:21;;;;;;;4.57;1.65;;;21.20;52.60;;;;;;5024941;28;20028;-70
2023/05/21 12:53:47;;;;;;;3.20;1.80;;;20.70;55.40;;;;;;5035072;28;20119;-71